This is the latest recevied weather packets stored in our database for station/object LU8AQL-WX. If no packets are shown the sender has not sent any weather packets the latest 1 day(s).
| Time | Temp. | Humidity | Pressure | Rain* | Wind** | Luminosity | Snow |
|---|---|---|---|---|---|---|---|
| 1778012634 | 21.67° C | 80% | 1012 hPa | 0 mm | 3.58 m/s, 110° | - | - |
| 1778012026 | 21.67° C | 80% | 1012 hPa | 0 mm | 3.58 m/s, 110° | - | - |
| 1778011425 | 21.67° C | 80% | 1012 hPa | 0 mm | 2.24 m/s, 120° | - | - |
| 1778010824 | 21.67° C | 80% | 1013 hPa | 0 mm | 2.24 m/s, 120° | - | - |
| 1778010223 | 21.67° C | 80% | 1013 hPa | 0 mm | 2.24 m/s, 120° | - | - |
| 1778009622 | 21.67° C | 80% | 1013 hPa | 0 mm | 2.24 m/s, 120° | - | - |
| 1778009022 | 21.67° C | 80% | 1012 hPa | 0 mm | 2.24 m/s, 120° | - | - |
| 1778008421 | 21.67° C | 80% | 1012 hPa | 0 mm | 2.24 m/s, 120° | - | - |
| 1778007820 | 21.67° C | 80% | 1013 hPa | 0 mm | 0.89 m/s, 0° | - | - |
| 1778007219 | 21.67° C | 79% | 1013 hPa | 0 mm | 0.89 m/s, 0° | - | - |
| 1778006618 | 21.67° C | 79% | 1013 hPa | 0 mm | 0.89 m/s, 0° | - | - |
| 1778006017 | 21.67° C | 79% | 1012 hPa | 0 mm | 0.89 m/s, 0° | - | - |
| 1778005416 | 21.67° C | 79% | 1012 hPa | 0 mm | 0.89 m/s, 0° | - | - |
| 1778004815 | 21.67° C | 79% | 1012 hPa | 0 mm | 0.89 m/s, 0° | - | - |
| 1778004215 | 22.22° C | 77% | 1012 hPa | 0 mm | 2.24 m/s, 26° | - | - |
| 1778003614 | 22.22° C | 77% | 1012 hPa | 0 mm | 2.24 m/s, 26° | - | - |
| 1778003013 | 22.22° C | 77% | 1012 hPa | 0 mm | 3.13 m/s, 48° | - | - |
| 1778002412 | 22.22° C | 77% | 1012 hPa | 0 mm | 3.13 m/s, 48° | - | - |
| 1778001811 | 22.22° C | 76% | 1013 hPa | 0 mm | 2.68 m/s, 45° | - | - |
| 1778001210 | 22.22° C | 76% | 1013 hPa | 0 mm | 2.68 m/s, 45° | - | - |
| 1778000609 | 22.22° C | 76% | 1013 hPa | 0 mm | 2.68 m/s, 45° | - | - |
| 1778000008 | 22.22° C | 76% | 1013 hPa | 0 mm | 2.68 m/s, 45° | - | - |
| 1777999408 | 22.22° C | 76% | 1013 hPa | 0 mm | 2.68 m/s, 45° | - | - |
| 1777998807 | 22.22° C | 76% | 1013 hPa | 0 mm | 2.68 m/s, 45° | - | - |
| 1777998206 | 21.67° C | 76% | 1014 hPa | 0 mm | 2.24 m/s, 31° | - | - |
* Rain latest hour (hover to see other rain measurements)
** Current wind speed in m/s (hover to see current wind gust speed)